Latest Coastal Weather Observations for Darwin Airport

IDD60701

Issued at 1:01 am CST Thursday 23 February 2017 (issued every 10 minutes, with the page automatically refreshed every 10 minutes)

About coastal observations | Map of coastal stations | Coastal observations for NT | Marine services | Other Formats
Station Details ID: 014015 Name: DARWIN AIRPORT Lat: -12.42 Lon: 130.89 Height: 30.4 m
Data from the previous 72 hours. | See also: Recent months at Darwin Airport
Date/Time
CST
Temp
°C
Wind Pressure Rain since
9am
mm
Weather Cloud Vis
km
Sea
Height
m
Swell
Dir  Spd
kts
Gust
kts
hPa Trend Height
m
Period
s
Dir
23/12:30am 27.7 WSW 5 6 1010.1 - 0.0 - - 10 - - - -
23/12:00am 27.9 WSW 6 7 1010.5 R 0.0 Fine Mostly clear 30 - - - -
 
Date/Time
CST
Temp
°C
Wind Pressure Rain since
9am
mm
Weather Cloud Vis
km
Sea
Height
m
Swell
Dir  Spd
kts
Gust
kts
hPa Trend Height
m
Period
s
Dir
22/11:30pm 28.0 WSW 4 5 1010.8 - 0.0 - - 10 - - - -
22/11:00pm 28.1 WSW 5 6 1010.6 - 0.0 - - 10 - - - -
22/10:30pm 28.3 WSW 5 7 1010.5 - 0.0 - - 10 - - - -
22/10:00pm 28.5 WSW 7 11 1010.3 - 0.0 - - 10 - - - -
22/09:30pm 28.7 WSW 6 8 1010.1 - 0.0 - - 10 - - - -
22/09:00pm 28.9 WSW 6 9 1009.8 S 0.0 Fine Mostly clear 30 - - - -
22/08:30pm 29.1 WSW 7 11 1009.5 - 0.0 - - 10 - - - -
22/08:00pm 29.1 W 7 10 1009.1 - 0.0 - - 10 - - - -
22/07:30pm 29.4 W 9 12 1008.7 - 0.0 - - 10 - - - -
22/07:00pm 29.9 W 8 11 1008.5 - 0.0 - - 10 - - - -
22/06:30pm 30.7 W 9 13 1008.1 - 0.0 - Mostly clear 10 - - - -
22/06:00pm 31.6 WNW 11 15 1007.8 R 0.0 Distant precip. Mostly clear 30 - - - -
22/05:30pm 31.4 W 11 15 1007.5 - 0.0 - Mostly clear 10 - - - -
22/05:00pm 32.5 WNW 12 15 1007.5 - 0.0 Showers Mostly clear 3 - - - -
22/04:30pm 32.5 WNW 13 17 1007.5 - 0.0 - Mostly clear 10 - - - -
22/04:00pm 33.0 WNW 14 17 1007.6 - 0.0 - Mostly clear 10 - - - -
22/03:30pm 33.1 WNW 14 17 1007.8 - 0.0 - Mostly clear 10 - - - -
22/03:00pm 33.2 WNW 14 17 1008.0 F 0.0 Fine Mostly clear 30 - - - -
22/02:30pm 33.1 WNW 13 16 1008.2 - 0.0 - Mostly clear 10 - - - -
22/02:00pm 33.1 WNW 13 16 1008.6 - 0.0 - Mostly clear 10 - - - -
22/01:30pm 33.2 W 10 14 1009.1 - 0.0 - Mostly clear 10 - - - -
22/01:00pm 32.6 WNW 13 15 1009.7 - 0.0 - Mostly clear 10 - - - -
22/12:30pm 32.6 W 9 14 1010.2 - 0.0 - Mostly clear 10 - - - -
22/12:00pm 32.2 WNW 9 14 1010.6 F 0.0 Fine Mostly clear 30 - - - -
22/11:30am 32.3 WNW 8 11 1010.9 - 0.0 - Mostly clear 10 - - - -
22/11:00am 31.8 WNW 7 9 1011.1 - 0.0 - Mostly clear 10 - - - -
22/10:30am 31.2 W 6 8 1011.3 - 0.0 - Mostly clear 10 - - - -
22/10:00am 30.8 WSW 6 9 1011.4 - 0.0 - Mostly clear 10 - - - -
22/09:30am 30.0 WSW 7 10 1011.5 - 0.0 - Mostly clear 10 - - - -
22/09:00am 29.2 WSW 7 10 1011.7 R 0.0 Fine Mostly clear 30 - - - -
22/08:30am 28.5 SW 6 8 1011.5 - 0.0 - - 10 - - - -
22/08:00am 28.0 SW 5 6 1011.3 - 0.0 - - 10 - - - -
22/07:30am 26.9 SW 4 5 1010.9 - 0.0 - - 10 - - - -
22/07:00am 25.5 SW 3 3 1010.7 - 0.0 - - 10 - - - -
22/06:30am 25.2 WSW 3 3 1010.3 - 0.0 - - 10 - - - -
22/06:00am 25.5 WSW 4 4 1010.1 R 0.0 Fine Mostly clear 30 - - - -
22/05:30am 26.1 WSW 3 3 1009.9 - 0.0 - - 10 - - - -
22/05:00am 26.2 WSW 4 5 1009.6 - 0.0 - - 10 - - - -
22/04:30am 26.4 WSW 3 4 1009.1 - 0.0 - - 10 - - - -
22/04:00am 26.1 WSW 3 3 1008.9 - 0.0 - - 10 - - - -
22/03:30am 26.6 WSW 3 4 1008.7 - 0.0 - - 10 - - - -
22/03:00am 26.7 WSW 4 5 1008.8 R 0.0 Fine Mostly clear 30 - - - -
22/02:30am 26.7 WSW 3 4 1008.9 - 0.0 - - 10 - - - -
22/02:00am 26.8 WSW 4 6 1009.1 - 0.0 - - 10 - - - -
22/01:30am 27.1 SW 4 5 1009.4 - 0.0 - - 10 - - - -
22/01:00am 27.1 SW 5 6 1009.6 - 0.0 - - 10 - - - -
22/12:30am 27.3 WSW 4 5 1009.8 - 0.0 - - 10 - - - -
22/12:00am 27.5 W 4 4 1010.2 F 0.0 Fine Mostly clear 30 - - - -
 
Date/Time
CST
Temp
°C
Wind Pressure Rain since
9am
mm
Weather Cloud Vis
km
Sea
Height
m
Swell
Dir  Spd
kts
Gust
kts
hPa Trend Height
m
Period
s
Dir
21/11:30pm 27.5 WSW 3 4 1010.5 - 0.0 - - 10 - - - -
21/11:00pm 27.9 WSW 3 3 1010.6 - 0.0 - - 10 - - - -
21/10:30pm 28.1 WSW 4 5 1010.5 - 0.0 - - 10 - - - -
21/10:00pm 28.1 W 3 4 1010.4 - 0.0 - - 10 - - - -
21/09:30pm 28.2 W 3 4 1010.1 - 0.0 - - 10 - - - -
21/09:00pm 28.6 W 4 6 1009.8 F 0.0 Fine Mostly clear 30 - - - -
21/08:30pm 28.6 W 4 5 1009.6 - 0.0 - - 10 - - - -
21/08:00pm 28.7 WSW 5 6 1009.1 - 0.0 - - 10 - - - -
21/07:30pm 29.0 W 7 9 1008.9 - 0.0 - - 10 - - - -
21/07:00pm 29.5 W 7 10 1008.7 - 0.0 - Mostly clear 10 - - - -
21/06:30pm 30.2 W 9 12 1008.4 - 0.0 - Mostly clear 10 - - - -
21/06:00pm 30.9 WNW 11 14 1008.1 R 0.0 Fine Partly cloudy 30 - - - -
21/05:30pm 30.8 WNW 13 17 1007.9 - 0.0 - Mostly clear 10 - - - -
21/05:00pm 31.5 W 13 17 1007.8 - 0.0 - Mostly clear 10 - - - -
21/04:30pm 32.1 WNW 13 17 1007.7 - 0.0 - Mostly clear 10 - - - -
21/04:00pm 32.5 WNW 12 15 1007.7 - 0.0 - Mostly clear 10 - - - -
21/03:30pm 32.9 WNW 13 16 1007.8 - 0.0 - Mostly clear 10 - - - -
21/03:00pm 33.9 WNW 8 12 1008.1 F 0.0 Fine Partly cloudy 30 - - - -
21/02:30pm 33.7 WNW 8 11 1008.5 - 0.0 - - 10 - - - -
21/02:00pm 33.4 SSW 5 9 1009.0 - 0.0 - - 10 - - - -
21/01:30pm 33.1 S 7 11 1009.6 - 0.0 - - 10 - - - -
21/01:00pm 32.7 SSW 6 10 1010.4 - 0.0 - Mostly clear 10 - - - -
21/12:39pm 32.4 SW 5 9 1010.8 - 0.0 - Mostly clear 10 - - - -
21/12:30pm 32.8 S 6 9 1010.9 - 0.0 - - 10 - - - -
21/12:00pm 31.6 S 6 9 1011.4 F 0.0 Fine Mostly clear 30 - - - -
21/11:30am 31.1 S 5 7 1011.6 - 0.0 - Mostly clear 10 - - - -
21/11:00am 30.7 S 6 8 1012.0 - 0.0 - Mostly clear 10 - - - -
21/10:30am 30.2 SSW 5 7 1012.3 - 0.0 - Mostly clear 10 - - - -
21/10:00am 30.2 SW 6 9 1012.3 - 0.0 - Mostly clear 10 - - - -
21/09:30am 29.5 SW 8 10 1012.2 - 0.0 - Mostly clear 10 - - - -
21/09:00am 29.0 WSW 8 10 1012.1 R 0.0 Fine Partly cloudy 30 - - - -
21/08:30am 28.3 SW 7 11 1011.6 - 0.0 - Mostly clear 10 - - - -
21/08:00am 27.6 SW 5 8 1011.1 - 0.0 - Mostly clear 10 - - - -
21/07:30am 27.2 SW 4 5 1010.6 - 0.0 - Mostly clear 10 - - - -
21/07:00am 26.3 SW 3 4 1010.1 - 0.0 - Mostly clear 10 - - - -
21/06:30am 26.1 SW 3 5 1009.4 - 0.0 - Mostly clear 10 - - - -
21/06:00am 26.2 SW 4 5 1009.0 R 0.0 Fine Partly cloudy 30 - - - -
21/05:30am 26.5 SW 3 4 1008.6 - 0.0 - Mostly clear 10 - - - -
21/05:00am 26.7 SW 4 5 1008.4 - 0.0 - Mostly clear 10 - - - -
21/04:30am 26.7 SW 4 6 1008.2 - 0.0 - Mostly clear 10 - - - -
21/04:00am 26.8 SW 4 5 1008.0 - 0.0 - Mostly clear 10 - - - -
21/03:30am 26.9 SW 3 4 1008.1 - 0.0 - Mostly clear 10 - - - -
21/03:00am 27.1 WSW 4 5 1008.4 R 0.0 Fine Mostly clear 30 - - - -
21/02:30am 27.4 WSW 5 7 1008.5 - 0.0 - - 10 - - - -
21/02:00am 27.5 SW 5 7 1008.6 - 0.0 - Mostly clear 10 - - - -
21/01:30am 27.6 SW 6 8 1008.8 - 0.0 - Mostly clear 10 - - - -
21/01:00am 27.7 SW 5 7 1008.9 - 0.0 - - 10 - - - -
21/12:30am 27.9 SW 4 6 1009.4 - 0.0 - - 10 - - - -
21/12:00am 27.9 SW 6 8 1009.6 F 0.0 Fine Mostly clear 30 - - - -
 
Date/Time
CST
Temp
°C
Wind Pressure Rain since
9am
mm
Weather Cloud Vis
km
Sea
Height
m
Swell
Dir  Spd
kts
Gust
kts
hPa Trend Height
m
Period
s
Dir
20/11:30pm 27.9 WSW 4 5 1009.7 - 0.0 - - 10 - - - -
20/11:00pm 27.8 W 5 6 1009.7 - 0.0 - - 10 - - - -
20/10:30pm 27.9 W 6 7 1009.8 - 0.0 - - 10 - - - -
20/10:00pm 28.0 W 5 6 1009.6 - 0.0 - - 10 - - - -
20/09:30pm 28.2 W 5 6 1009.5 - 0.0 - - 10 - - - -
20/09:00pm 28.4 WNW 5 6 1009.1 R 0.0 Fine Mostly clear 30 - - - -
20/08:30pm 28.6 W 5 6 1008.7 - 0.0 - Mostly clear 10 - - - -
20/08:00pm 28.9 W 5 6 1008.4 - 0.0 - Mostly clear 10 - - - -
20/07:30pm 29.0 WNW 7 9 1008.1 - 0.0 - Mostly clear 10 - - - -
20/07:00pm 29.5 WNW 8 11 1007.6 - 0.0 - Mostly clear 10 - - - -
20/06:30pm 30.2 WNW 9 12 1007.2 - 0.0 - Mostly clear 10 - - - -
20/06:00pm 30.7 WNW 10 13 1006.8 R 0.0 Fine Mostly cloudy 30 - - - -
20/05:30pm 30.9 NW 11 13 1006.4 - 0.0 - Mostly clear 10 - - - -
20/05:00pm 31.1 WNW 11 13 1006.0 - 0.0 - Mostly clear 10 - - - -
20/04:30pm 31.2 WNW 10 13 1005.9 - 0.0 - Mostly clear 10 - - - -
20/04:00pm 31.6 WNW 11 13 1005.8 - 0.0 - Mostly clear 10 - - - -
20/03:30pm 31.4 WNW 10 13 1006.1 - 0.0 - Mostly clear 10 - - - -
20/03:00pm 31.4 WNW 9 12 1006.3 F 0.0 Fine Partly cloudy 30 - - - -
20/02:30pm 31.3 WSW 8 11 1006.7 - 0.0 - Mostly clear 10 - - - -
20/02:00pm 32.9 W 12 14 1007.0 - 0.0 - Mostly clear 10 - - - -
20/01:30pm 31.9 WSW 6 12 1007.3 - 0.0 - Mostly clear 10 - - - -
20/01:00pm 32.2 W 5 8 1007.9 - 0.0 - Mostly clear 10 - - - -
20/12:30pm 31.4 SSW 4 7 1008.4 - 0.0 - Mostly clear 10 - - - -
20/12:00pm 30.8 WSW 4 9 1008.6 F 0.0 Fine Mostly cloudy 30 - - - -
20/11:54am 30.1 SW 4 9 1008.6 - 0.0 - Mostly clear 10 - - - -
20/11:30am 29.9 WSW 4 6 1009.0 - 0.0 - - 10 - - - -
20/11:00am 29.0 WNW 2 4 1009.5 - 0.0 - Mostly clear 10 - - - -
20/10:30am 28.8 W 2 3 1009.8 - 0.0 - Mostly clear 10 - - - -
20/10:00am 28.2 WSW 3 5 1009.7 - 0.0 - Mostly clear 10 - - - -
20/09:30am 27.6 WNW 4 6 1009.8 - 0.0 - Mostly clear 10 - - - -
20/09:00am 27.6 WNW 4 6 1009.7 R 12.2 Fine Mostly cloudy 30 - - - -
20/08:30am 27.3 W 1 3 1009.5 - 12.2 - Mostly clear 10 - - - -
20/08:00am 26.1 NNW 4 7 1009.3 - 12.2 - Mostly clear 10 - - - -
20/07:30am 25.2 NNW 4 5 1008.8 - 12.2 - Mostly clear 10 - - - -
20/07:00am 24.7 N 3 3 1008.4 - 12.2 - Mostly clear 10 - - - -
20/06:30am 24.9 CALM 0 1 1008.0 - 12.2 - Mostly clear 10 - - - -
20/06:00am 25.0 SE 1 2 1007.9 R 12.2 Fine Mostly cloudy 20 - - - -
20/05:30am 25.2 CALM 0 0 1007.7 - 12.2 - Mostly clear 10 - - - -
20/05:00am 25.4 ESE 2 3 1007.8 - 12.2 - Mostly clear 10 - - - -
20/04:30am 25.2 SE 2 3 1007.8 - 12.2 - Mostly clear 10 - - - -
20/04:05am 25.1 S 5 8 1007.3 - 12.2 - Mostly cloudy 10 - - - -
20/04:00am 25.1 S 5 8 1007.4 - 12.2 - Mostly cloudy 10 - - - -
20/03:30am 24.7 S 5 7 1007.0 - 12.2 - Partly cloudy 10 - - - -
20/03:00am 24.9 WSW 5 8 1007.2 R 12.2 Recent th'storm Mostly cloudy 9 - - - -
20/02:35am 24.8 S 9 14 1007.2 - 12.0 - Partly cloudy 10 - - - -
20/02:30am 24.8 S 11 15 1007.3 - 12.0 - Partly cloudy 10 - - - -
20/02:00am 24.0 ESE 12 19 1008.3 - 5.8 Showers Partly cloudy 2 - - - -
20/01:54am 24.2 SE 15 19 1008.6 - 3.4 Thunderstorm Partly cloudy 2 - - - -
20/01:43am 25.4 S 9 21 1008.3 - 1.8 Thunderstorm Partly cloudy 4 - - - -
20/01:39am 27.0 SSW 6 8 1008.2 - 0.0 Showers Partly cloudy 4 - - - -
20/01:30am 28.0 WSW 6 10 1007.7 - 0.0 - Partly cloudy 9 - - - -
20/01:26am 28.1 W 7 10 1007.8 - 0.0 - Partly cloudy 10 - - - -

Other Formats:

Comma delimited format used in spreadsheet applications
http://www.bom.gov.au/fwo/IDD60701/IDD60701.94120.axf

JavaScript Object Notation format (JSON) in row-major order
http://www.bom.gov.au/fwo/IDD60701/IDD60701.94120.json